North Fairfield, Ohio
Current Conditions -  °F | °C
As of 9:08 PM on Monday 20 Oct 2014 (Local Time) from KMFD Reporting Station
Overcast Overcast  
Wind Chill: 51°   Ceiling: 1200
Heat Index: 51°   Visibility: 10mi
Dew Point: 50°   Wind: 12mph
Humidity: 96%   Direction: 200°SSW
Pressure: 29.86"   Gusts: NA
Location:  41.1°N, 82.61°W
Report Text: KMFD 210108Z 20010KT 10SM BKN012 OVC019 11/10 A2986 RMK AO2 T01060100
Loading
Personal Weather Stations






























Interactive Weather Map
Tropical Storm Tracking
New forecast layout! Learn more

10-Day Weather Forecast

Advertisements
Track Severe Weather on mobile